Time;durP1;ratioP1;P1;durP2;ratioP2;P2;SDS_P1;SDS_P2;PMS_P1;PMS_P2;Temp;Humidity;BMP_temperature;BMP_pressure;BME280_temperature;BME280_humidity;BME280_pressure;Samples;Min_cycle;Max_cycle;Signal;HPM_P1;HPM_P2
2022/01/12 00:01:02;;;;;;;1.45;1.35;;;;;;;-2.17;100.00;98323.31;5026713;28;20021;-89
2022/01/12 00:03:28;;;;;;;1.08;1.08;;;;;;;-2.13;100.00;98335.56;5034363;28;20123;-90
2022/01/12 00:05:54;;;;;;;1.77;1.63;;;;;;;-2.08;100.00;98333.81;5034800;28;20366;-89
2022/01/12 00:08:20;;;;;;;1.58;1.50;;;;;;;-2.00;100.00;98329.41;5018187;28;20037;-90
2022/01/12 00:10:45;;;;;;;0.93;0.93;;;;;;;-1.84;100.00;98346.91;5018490;28;20037;-89
2022/01/12 00:13:11;;;;;;;15.35;1.77;;;;;;;-1.92;100.00;98335.56;5015384;28;20025;-89
2022/01/12 00:15:37;;;;;;;2.67;1.65;;;;;;;-1.84;100.00;98346.91;5014335;28;20061;-89
2022/01/12 00:18:02;;;;;;;3.70;2.22;;;;;;;-2.05;100.00;98335.53;5019306;28;20120;-89
2022/01/12 00:20:28;;;;;;;0.40;0.40;;;;;;;-1.89;100.00;98340.78;5019633;28;20589;-89
2022/01/12 00:22:54;;;;;;;0.70;0.70;;;;;;;-2.13;100.00;98337.31;5018930;28;20068;-89
2022/01/12 00:33:16;;;;;;;0.85;0.85;;;;;;;-2.22;100.00;98374.84;5035558;28;20083;-89
2022/01/12 00:35:44;;;;;;;0.50;0.50;;;;;;;-2.16;100.00;98363.50;5015670;28;20585;-90
2022/01/12 00:38:10;;;;;;;1.17;1.13;;;;;;;-2.30;100.00;98366.97;5017205;28;20112;-89
2022/01/12 00:40:39;;;;;;;1.45;1.35;;;;;;;-2.24;100.00;98366.97;5033733;28;20021;-90
2022/01/12 00:43:05;;;;;;;1.33;1.30;;;;;;;-2.34;100.00;98364.34;5017669;28;20036;-89
2022/01/12 00:45:32;;;;;;;2.38;2.17;;;;;;;-2.44;100.00;98362.56;5014821;28;20505;-88
2022/01/12 00:47:58;;;;;;;0.95;0.95;;;;;;;-2.32;100.00;98378.31;5019287;28;20033;-88
2022/01/12 00:50:23;;;;;;;1.65;1.55;;;;;;;-2.40;100.00;98359.94;5019607;28;20040;-89
2022/01/12 00:52:50;;;;;;;0.40;0.40;;;;;;;-2.44;100.00;98379.16;5034654;28;20093;-89
2022/01/12 00:55:16;;;;;;;0.70;0.70;;;;;;;-2.47;100.00;98373.03;5017371;28;20104;-88
2022/01/12 00:57:42;;;;;;;0.60;0.60;;;;;;;-2.49;100.00;98372.19;5019208;28;20013;-89
2022/01/12 01:00:08;;;;;;;1.27;1.15;;;;;;;-2.43;100.00;98346.84;5019123;28;20087;-87
2022/01/12 01:02:34;;;;;;;0.70;0.70;;;;;;;-2.43;100.00;98364.34;5015055;28;20084;-89
2022/01/12 01:05:01;;;;;;;0.70;0.70;;;;;;;-2.28;100.00;98366.97;5019244;28;20452;-88
2022/01/12 01:07:26;;;;;;;0.50;0.50;;;;;;;-2.42;100.00;98363.44;5019015;28;20017;-89
2022/01/12 01:10:03;;;;;;;0.50;0.50;;;;;;;-2.59;100.00;98347.72;5018997;28;20061;-89
2022/01/12 01:12:28;;;;;;;1.33;1.33;;;;;;;-2.36;100.00;98366.94;5016919;28;20065;-90
2022/01/12 01:15:08;;;;;;;1.40;1.40;;;;;;;-2.29;100.00;98379.19;5014251;28;20033;-91
2022/01/12 01:26:01;;;;;;;1.15;1.15;;;;;;;-2.43;100.00;98366.97;5035273;28;20041;-89
2022/01/12 01:28:27;;;;;;;1.02;1.00;;;;;;;-2.49;100.00;98370.41;5013964;28;20037;-91
2022/01/12 01:30:52;;;;;;;3.63;1.25;;;;;;;-2.54;100.00;98353.81;5014077;28;20065;-89
2022/01/12 01:33:21;;;;;;;1.35;0.90;;;;;;;-2.61;100.00;98348.56;5015034;28;20037;-89
2022/01/12 01:35:53;;;;;;;1.13;1.13;;;;;;;-2.57;100.00;98381.75;5018002;28;20056;-89
2022/01/12 01:38:18;;;;;;;0.77;0.75;;;;;;;-2.58;100.00;98361.69;5034126;28;20421;-89
2022/01/12 01:40:45;;;;;;;1.00;1.00;;;;;;;-2.50;100.00;98380.91;5017011;28;20033;-89
2022/01/12 01:43:22;;;;;;;1.88;1.70;;;;;;;-2.75;100.00;98357.25;5018441;28;20037;-89
2022/01/12 01:54:03;;;;;;;0.90;0.90;;;;;;;-2.67;100.00;98387.81;5026780;28;20032;-85
2022/01/12 01:56:29;;;;;;;0.73;0.73;;;;;;;-2.77;100.00;98379.91;5018782;28;20029;-84
2022/01/12 01:58:55;;;;;;;1.00;1.00;;;;;;;-2.64;100.00;98375.59;5018343;28;20033;-84
2022/01/12 02:01:21;;;;;;;2.25;1.33;;;;;;;-2.69;100.00;98372.13;5018046;28;20044;-84
2022/01/12 02:03:46;;;;;;;1.15;1.15;;;;;;;-2.71;100.00;98373.88;5016549;28;20057;-84
2022/01/12 02:06:12;;;;;;;5.68;2.33;;;;;;;-2.85;100.00;98376.41;5018114;28;20113;-84
2022/01/12 02:08:38;;;;;;;0.88;0.88;;;;;;;-2.83;100.00;98364.19;5031755;28;20061;-84
2022/01/12 02:11:04;;;;;;;1.17;1.13;;;;;;;-2.81;100.00;98372.06;5015272;28;20029;-84
2022/01/12 02:13:30;;;;;;;1.17;1.17;;;;;;;-2.76;100.00;98386.03;5017909;28;20034;-84
2022/01/12 02:15:58;;;;;;;1.77;1.67;;;;;;;-2.70;100.00;98404.38;5035049;28;20032;-84
2022/01/12 02:35:47;;;;;;;0.50;0.50;;;;;;;-2.77;100.00;98406.09;5034247;28;20091;-85
2022/01/12 02:40:23;;;;;;;0.82;0.82;;;;;;;-2.85;100.00;98409.56;5028603;28;20563;-83
2022/01/12 02:42:58;;;;;;;0.93;0.93;;;;;;;-2.77;100.00;98411.34;5016969;28;20021;-82
2022/01/12 02:51:08;;;;;;;1.00;1.00;;;;;;;-2.75;100.00;98409.63;5034745;28;20031;-85
2022/01/12 02:53:39;;;;;;;1.08;0.98;;;;;;;-2.86;100.00;98415.69;5033764;28;20029;-84
2022/01/12 02:56:15;;;;;;;0.77;0.77;;;;;;;-2.85;100.00;98414.78;5017693;28;20022;-85
2022/01/12 02:58:43;;;;;;;1.42;1.33;;;;;;;-2.74;100.00;98415.72;5033928;28;20082;-84
2022/01/12 03:03:37;;;;;;;0.52;0.52;;;;;;;-2.62;100.00;98414.91;5033379;28;20056;-85
2022/01/12 03:06:06;;;;;;;0.95;0.95;;;;;;;-2.67;100.00;98417.47;5016282;28;20025;-83
2022/01/12 03:08:37;;;;;;;2.00;1.90;;;;;;;-2.64;100.00;98420.13;5017056;28;20030;-83
2022/01/12 03:11:16;;;;;;;1.48;1.48;;;;;;;-2.64;100.00;98427.09;5017809;28;20048;-85
2022/01/12 03:13:42;;;;;;;1.77;1.67;;;;;;;-2.70;100.00;98427.06;5016699;28;20038;-90
2022/01/12 03:16:14;;;;;;;1.05;1.05;;;;;;;-2.74;100.00;98426.19;5020204;28;20014;-89
2022/01/12 03:18:42;;;;;;;1.20;1.20;;;;;;;-2.65;100.00;98441.06;5020369;28;20069;-89
2022/01/12 03:21:08;;;;;;;1.52;1.42;;;;;;;-2.62;100.00;98430.59;5018417;28;20564;-88
2022/01/12 03:23:34;;;;;;;0.40;0.40;;;;;;;-2.61;100.00;98433.22;5017096;28;20413;-89
2022/01/12 03:26:00;;;;;;;0.70;0.70;;;;;;;-2.65;100.00;98420.13;5037595;28;20029;-89
2022/01/12 03:28:26;;;;;;;1.25;1.20;;;;;;;-2.57;100.00;98428.88;5020083;28;20029;-87
2022/01/12 03:31:02;;;;;;;1.02;1.02;;;;;;;-2.67;100.00;98429.69;5018888;28;20033;-86
2022/01/12 04:09:10;;;;;;;0.93;0.93;;;;;;;-2.62;100.00;98467.25;5027717;28;20109;-89
2022/01/12 04:11:36;;;;;;;2.15;1.67;;;;;;;-2.61;100.00;98469.00;5018826;28;20408;-87
2022/01/12 04:14:03;;;;;;;1.52;1.42;;;;;;;-2.62;100.00;98480.34;5019055;28;20485;-88
2022/01/12 04:16:28;;;;;;;1.85;1.75;;;;;;;-2.78;100.00;98471.53;5018476;28;20025;-88
2022/01/12 04:18:54;;;;;;;2.08;1.98;;;;;;;-2.75;100.00;98474.19;5018540;28;20051;-88
2022/01/12 04:21:47;;;;;;;1.92;1.83;;;;;;;-2.70;100.00;98474.19;5009840;28;20034;-85
2022/01/12 04:24:13;;;;;;;0.98;0.98;;;;;;;-2.86;100.00;98481.97;5020883;28;20116;-89
2022/01/12 04:26:39;;;;;;;1.98;1.85;;;;;;;-2.97;100.00;98449.63;5014740;28;20045;-88
2022/01/12 04:29:06;;;;;;;1.33;1.23;;;;;;;-2.67;100.00;98480.31;5010987;28;20025;-88
2022/01/12 04:31:36;;;;;;;3.40;1.75;;;;;;;-2.72;100.00;98482.03;5018880;28;20092;-89
2022/01/12 04:34:03;;;;;;;3.40;1.92;;;;;;;-2.76;100.00;98481.16;5034161;28;20032;-89
2022/01/12 04:36:29;;;;;;;1.60;1.50;;;;;;;-2.61;100.00;98489.94;5017547;28;20383;-89
2022/01/12 04:38:54;;;;;;;1.10;1.10;;;;;;;-2.57;100.00;98500.44;5015711;28;20032;-89
2022/01/12 04:41:22;;;;;;;1.85;1.65;;;;;;;-2.57;100.00;98496.94;5017851;28;20033;-89
2022/01/12 04:43:49;;;;;;;1.17;1.10;;;;;;;-2.60;100.00;98494.31;5016593;28;20029;-88
2022/01/12 04:51:42;;;;;;;1.37;1.27;;;;;;;-2.53;100.00;98506.56;4940295;29;20121;-87
2022/01/12 04:54:07;;;;;;;3.53;3.20;;;;;;;-2.57;100.00;98497.81;4990670;28;20072;-87
2022/01/12 04:56:33;;;;;;;0.90;0.90;;;;;;;-2.67;100.00;98505.63;5011539;28;20452;-78
2022/01/12 04:58:58;;;;;;;1.58;1.48;;;;;;;-2.50;100.00;98514.44;5029774;28;20033;-77
2022/01/12 05:01:27;;;;;;;1.92;1.83;;;;;;;-2.40;100.00;98521.50;5009934;28;20064;-78
2022/01/12 05:09:15;;;;;;;2.70;2.05;;;;;;;-2.36;100.00;98531.97;5029664;28;20022;-77
2022/01/12 05:14:26;;;;;;;1.70;1.60;;;;;;;-2.38;100.00;98540.69;5029991;28;20037;-77
2022/01/12 05:16:52;;;;;;;2.80;1.98;;;;;;;-2.42;100.00;98541.53;5017539;28;20485;-88
2022/01/12 05:19:18;;;;;;;0.60;0.60;;;;;;;-2.57;100.00;98544.97;5019268;28;20033;-89
2022/01/12 05:21:43;;;;;;;2.20;1.83;;;;;;;-2.64;100.00;98537.03;5016662;28;20088;-88
2022/01/12 05:24:10;;;;;;;1.40;1.40;;;;;;;-2.74;100.00;98531.75;5016074;28;20056;-88
2022/01/12 05:26:36;;;;;;;3.90;2.42;;;;;;;-2.74;100.00;98528.28;5014916;28;20024;-90
2022/01/12 05:29:02;;;;;;;2.08;1.98;;;;;;;-2.60;100.00;98549.28;5016845;28;20029;-88
2022/01/12 05:31:28;;;;;;;3.33;2.90;;;;;;;-2.89;100.00;98549.13;5018556;28;20030;-88
2022/01/12 05:33:54;;;;;;;1.42;1.42;;;;;;;-2.78;100.00;98556.19;5035810;28;20033;-89
2022/01/12 05:36:19;;;;;;;2.97;2.17;;;;;;;-2.77;100.00;98557.91;5022975;28;20030;-89
2022/01/12 05:38:47;;;;;;;1.88;1.77;;;;;;;-2.82;100.00;98562.25;5023458;28;20029;-89
2022/01/12 05:41:13;;;;;;;3.17;2.22;;;;;;;-2.87;100.00;98555.25;5023508;28;20068;-89
2022/01/12 05:43:40;;;;;;;2.85;1.80;;;;;;;-2.77;100.00;98563.16;5021901;28;20445;-86
2022/01/12 05:46:10;;;;;;;1.35;1.33;;;;;;;-2.71;100.00;98561.47;5013560;28;20040;-90
2022/01/12 05:51:21;;;;;;;0.98;0.98;;;;;;;-2.77;100.00;98565.75;5037633;28;20099;-89
2022/01/12 05:53:47;;;;;;;1.30;0.95;;;;;;;-2.62;100.00;98580.72;5020404;28;20033;-88
2022/01/12 05:56:12;;;;;;;1.25;1.25;;;;;;;-2.64;100.00;98578.94;5019963;28;20031;-89
2022/01/12 05:58:38;;;;;;;1.85;1.75;;;;;;;-2.67;100.00;98574.56;5036342;28;20151;-86
2022/01/12 06:01:03;;;;;;;0.70;0.70;;;;;;;-2.47;100.00;98593.03;5017380;28;20029;-86
2022/01/12 06:03:29;;;;;;;1.27;1.27;;;;;;;-2.43;100.00;98585.19;5017069;28;20034;-87
2022/01/12 06:05:54;;;;;;;3.15;2.92;;;;;;;-2.40;100.00;98593.06;5015265;28;20136;-88
2022/01/12 06:08:20;;;;;;;1.52;1.48;;;;;;;-2.33;100.00;98588.72;5020569;28;20033;-88
2022/01/12 06:10:45;;;;;;;5.60;5.10;;;;;;;-2.28;100.00;98592.28;5022395;28;20030;-88
2022/01/12 06:13:11;;;;;;;1.75;1.65;;;;;;;-2.29;100.00;98603.59;5022306;28;20553;-87
2022/01/12 06:15:45;;;;;;;1.42;1.38;;;;;;;-2.35;100.00;98588.75;5022328;28;20112;-89
2022/01/12 06:18:11;;;;;;;1.83;1.73;;;;;;;-2.25;100.00;98610.63;5038550;28;20037;-88
2022/01/12 06:20:37;;;;;;;2.60;2.40;;;;;;;-2.30;100.00;98594.00;5022306;28;20038;-88
2022/01/12 06:23:02;;;;;;;2.95;2.75;;;;;;;-2.30;100.00;98584.38;5008505;28;20397;-88
2022/01/12 06:25:28;;;;;;;6.65;4.15;;;;;;;-2.40;100.00;98579.09;5022076;28;20049;-88
2022/01/12 06:28:09;;;;;;;7.72;3.38;;;;;;;-2.08;100.00;98624.69;5030521;28;20065;-89
2022/01/12 06:33:18;;;;;;;14.55;4.72;;;;;;;-2.01;100.00;98639.56;5027267;28;20066;-89
2022/01/12 06:35:44;;;;;;;0.75;0.75;;;;;;;-2.17;100.00;98624.63;5037551;28;20037;-87
2022/01/12 06:38:10;;;;;;;3.08;2.88;;;;;;;-2.11;100.00;98629.91;5039066;28;20025;-87
2022/01/12 06:40:35;;;;;;;3.33;3.03;;;;;;;-2.03;100.00;98643.91;5021529;28;20408;-87
2022/01/12 06:43:02;;;;;;;3.97;2.38;;;;;;;-2.03;100.00;98646.53;5022168;28;20482;-86
2022/01/12 06:45:28;;;;;;;2.53;2.42;;;;;;;-2.18;100.00;98642.97;5017184;28;20045;-86
2022/01/12 06:47:53;;;;;;;2.22;2.13;;;;;;;-2.24;100.00;98626.34;5018046;28;20073;-87
2022/01/12 06:50:19;;;;;;;2.05;1.70;;;;;;;-2.17;100.00;98644.72;5015465;28;20040;-87
2022/01/12 06:52:46;;;;;;;8.45;3.85;;;;;;;-2.20;100.00;98641.22;5020338;28;20037;-87
2022/01/12 06:55:12;;;;;;;2.58;2.38;;;;;;;-2.10;100.00;98647.41;5036930;28;20060;-86
2022/01/12 06:57:40;;;;;;;2.45;1.60;;;;;;;-2.09;100.00;98643.03;5019843;28;20025;-87
2022/01/12 07:00:06;;;;;;;3.65;2.40;;;;;;;-2.10;100.00;98657.00;5020099;28;20097;-87
2022/01/12 07:02:32;;;;;;;4.07;3.30;;;;;;;-2.26;100.00;98645.53;5019697;28;20059;-88
2022/01/12 07:04:58;;;;;;;1.42;1.33;;;;;;;-2.07;100.00;98655.28;5020432;28;20029;-87
2022/01/12 07:07:23;;;;;;;2.38;1.92;;;;;;;-1.97;100.00;98664.91;5029209;28;20035;-87
2022/01/12 07:09:50;;;;;;;1.42;1.38;;;;;;;-2.04;100.00;98660.53;5020334;28;20541;-87
2022/01/12 07:12:16;;;;;;;1.10;1.08;;;;;;;-2.06;100.00;98646.53;5037352;28;20031;-87
2022/01/12 07:14:42;;;;;;;7.43;3.67;;;;;;;-2.12;100.00;98656.97;5037092;28;20104;-88
2022/01/12 07:17:10;;;;;;;4.63;2.60;;;;;;;-1.87;100.00;98677.22;5021273;28;20512;-86
2022/01/12 07:19:39;;;;;;;2.25;2.15;;;;;;;-1.70;100.00;98670.31;5019434;28;20481;-87
2022/01/12 07:22:07;;;;;;;2.90;1.23;;;;;;;-1.79;100.00;98675.50;5020708;28;20025;-86
2022/01/12 07:24:34;;;;;;;1.80;1.42;;;;;;;-1.75;100.00;98672.00;5022677;28;20037;-87
2022/01/12 07:27:02;;;;;;;1.20;1.20;;;;;;;-1.69;100.00;98677.28;5019079;28;20110;-87
2022/01/12 07:29:28;;;;;;;1.52;1.52;;;;;;;-1.70;100.00;98686.03;5017541;28;20034;-88
2022/01/12 07:31:54;;;;;;;1.02;1.02;;;;;;;-1.59;100.00;98693.06;5017644;28;20022;-89
2022/01/12 07:34:19;;;;;;;2.05;1.95;;;;;;;-1.82;100.00;98675.50;5001647;28;20032;-88
2022/01/12 07:36:45;;;;;;;3.25;2.03;;;;;;;-1.90;100.00;98674.56;5001118;28;20481;-88
2022/01/12 07:39:11;;;;;;;4.20;3.15;;;;;;;-1.81;100.00;98682.47;5000899;28;20034;-88
2022/01/12 07:41:36;;;;;;;2.90;2.67;;;;;;;-1.84;100.00;98697.31;5000771;28;20121;-88
2022/01/12 07:44:02;;;;;;;4.28;3.80;;;;;;;-1.87;100.00;98703.41;4999887;28;20026;-88
2022/01/12 07:46:28;;;;;;;1.45;1.40;;;;;;;-1.88;100.00;98691.19;4999248;28;20049;-87
2022/01/12 07:48:54;;;;;;;3.15;2.90;;;;;;;-1.60;100.00;98712.31;5001707;28;20497;-88
2022/01/12 07:51:19;;;;;;;3.58;3.28;;;;;;;-1.91;100.00;98696.44;4999352;28;20029;-88
2022/01/12 07:53:45;;;;;;;2.63;2.20;;;;;;;-1.95;100.00;98692.03;5000515;28;20117;-88
2022/01/12 07:56:12;;;;;;;1.40;1.30;;;;;;;-1.88;100.00;98711.28;5000360;28;20029;-87
2022/01/12 07:58:38;;;;;;;1.45;1.35;;;;;;;-1.72;100.00;98706.13;5016661;28;20512;-88
2022/01/12 08:01:04;;;;;;;4.05;3.15;;;;;;;-1.50;100.00;98706.22;5001732;28;20033;-88
2022/01/12 08:03:30;;;;;;;3.45;3.03;;;;;;;-1.50;100.00;98729.81;5002009;28;20033;-88
2022/01/12 08:05:57;;;;;;;1.58;1.48;;;;;;;-1.38;100.00;98736.00;5002372;28;20038;-89
2022/01/12 08:08:22;;;;;;;1.55;1.27;;;;;;;-1.32;100.00;98722.91;5001173;28;20030;-89
2022/01/12 08:10:48;;;;;;;2.72;2.55;;;;;;;-1.29;100.00;98729.94;5002492;28;20535;-90
2022/01/12 08:13:14;;;;;;;2.65;2.42;;;;;;;-1.50;100.00;98711.47;5004671;28;20112;-88
2022/01/12 08:15:40;;;;;;;1.45;1.35;;;;;;;-1.70;100.00;98728.00;5000959;28;20505;-89
2022/01/12 08:18:05;;;;;;;1.85;1.75;;;;;;;-1.86;100.00;98720.91;5000291;28;20026;-88
2022/01/12 08:20:31;;;;;;;2.45;2.22;;;;;;;-1.71;100.00;98710.50;4999162;28;20036;-88
2022/01/12 08:22:57;;;;;;;1.85;1.75;;;;;;;-1.92;100.00;98726.13;4999299;28;20091;-88
2022/01/12 08:25:22;;;;;;;1.50;1.42;;;;;;;-1.81;100.00;98734.91;4999160;28;20092;-87
2022/01/12 08:27:48;;;;;;;2.58;1.52;;;;;;;-1.84;100.00;98728.78;4998937;28;20569;-89
2022/01/12 08:30:18;;;;;;;1.67;1.58;;;;;;;-1.93;100.00;98733.97;4998259;28;20038;-87
2022/01/12 08:32:45;;;;;;;1.13;1.13;;;;;;;-2.33;100.00;98730.19;4999464;28;20089;-88
2022/01/12 08:35:12;;;;;;;0.88;0.88;;;;;;;-2.38;100.00;98722.31;4998433;28;20026;-88
2022/01/12 08:37:37;;;;;;;0.95;0.95;;;;;;;-2.42;100.00;98727.50;4998756;28;20022;-88
2022/01/12 08:40:04;;;;;;;1.05;1.05;;;;;;;-2.21;100.00;98746.00;4998603;28;20036;-88
2022/01/12 08:42:29;;;;;;;0.70;0.70;;;;;;;-2.21;100.00;98743.38;4998511;28;20025;-89
2022/01/12 08:44:59;;;;;;;1.60;1.50;;;;;;;-2.05;100.00;98724.28;4998332;28;20105;-88
2022/01/12 08:47:29;;;;;;;0.73;0.57;;;;;;;-1.81;100.00;98734.03;5001371;28;20080;-89
2022/01/12 08:49:54;;;;;;;1.23;1.23;;;;;;;-1.55;100.00;98734.19;5017746;28;20030;-88
2022/01/12 08:52:22;;;;;;;0.95;0.95;;;;;;;-1.50;100.00;98756.94;5017815;28;20029;-88
2022/01/12 08:54:48;;;;;;;2.05;1.80;;;;;;;-1.56;100.00;98732.41;5033776;28;20025;-89
2022/01/12 08:57:13;;;;;;;0.95;0.95;;;;;;;-1.53;100.00;98745.53;5018134;28;20025;-88
2022/01/12 08:59:39;;;;;;;1.58;1.48;;;;;;;-1.48;100.00;98767.44;5018417;28;20036;-87
2022/01/12 09:02:06;;;;;;;1.50;1.48;;;;;;;-1.71;100.00;98736.72;5018607;28;20025;-88
2022/01/12 09:04:33;;;;;;;1.05;1.05;;;;;;;-1.69;100.00;98740.22;5022000;28;20481;-89
2022/01/12 09:06:58;;;;;;;3.67;1.70;;;;;;;-1.64;100.00;98737.63;5021666;28;20037;-88
2022/01/12 09:09:44;;;;;;;2.00;1.67;;;;;;;-1.20;100.00;98766.72;5022352;28;20036;-87
2022/01/12 09:12:10;;;;;;;1.00;1.00;;;;;;;-1.23;100.00;98761.44;5023349;28;20029;-88
2022/01/12 09:14:36;;;;;;;3.38;2.38;;;;;;;-1.11;100.00;98761.50;5022734;28;20036;-89
2022/01/12 09:17:02;;;;;;;9.32;2.65;;;;;;;-1.34;100.00;98747.38;5039150;28;20021;-87
2022/01/12 09:19:28;;;;;;;0.60;0.60;;;;;;;-1.25;100.00;98735.19;5022403;28;20038;-87
2022/01/12 09:21:56;;;;;;;0.85;0.85;;;;;;;-0.93;100.00;98752.78;5023697;28;20032;-88
2022/01/12 09:24:22;;;;;;;5.70;2.75;;;;;;;-1.24;100.00;98739.56;5024618;28;20068;-87
2022/01/12 09:26:49;;;;;;;3.30;2.78;;;;;;;-1.32;100.00;98740.38;5023490;28;20025;-87
2022/01/12 09:29:14;;;;;;;1.02;1.02;;;;;;;-1.23;100.00;98745.69;5022644;28;20059;-87
2022/01/12 09:31:40;;;;;;;1.58;1.48;;;;;;;-1.02;100.00;98737.00;5023313;28;20465;-87
2022/01/12 09:34:07;;;;;;;3.08;2.88;;;;;;;-1.04;100.00;98723.00;5023786;28;20053;-87
2022/01/12 09:36:32;;;;;;;3.80;3.42;;;;;;;-0.50;100.00;98744.13;5023945;28;20026;-86
2022/01/12 09:38:58;;;;;;;5.45;1.63;;;;;;;-0.71;98.75;98716.06;5023644;28;20030;-87
2022/01/12 09:41:26;;;;;;;1.38;1.35;;;;;;;-1.03;98.30;98728.25;5025148;28;20493;-86
2022/01/12 09:46:45;;;;;;;1.88;1.77;;;;;;;-0.91;100.00;98727.41;5014269;28;20053;-88
2022/01/12 09:49:12;;;;;;;5.30;1.70;;;;;;;-0.73;97.04;98733.56;5023352;28;20128;-85
2022/01/12 09:51:37;;;;;;;8.75;4.82;;;;;;;-0.84;97.18;98745.81;5010281;28;20033;-85
2022/01/12 09:54:03;;;;;;;0.80;0.80;;;;;;;-1.11;97.82;98709.84;5039829;28;20036;-88
2022/01/12 09:56:30;;;;;;;3.08;2.80;;;;;;;-0.87;96.47;98714.31;5024993;28;20028;-87
2022/01/12 09:58:58;;;;;;;1.67;1.58;;;;;;;-0.67;97.26;98728.31;5025690;28;20562;-88
2022/01/12 10:01:32;;;;;;;0.57;0.57;;;;;;;-0.88;93.75;98711.66;5038483;28;20028;-86
2022/01/12 10:04:16;;;;;;;1.58;0.93;;;;;;;-0.37;91.75;98735.34;5038231;28;20562;-87
2022/01/12 10:06:50;;;;;;;1.05;1.05;;;;;;;-0.50;93.04;98715.22;5039321;28;20025;-86
2022/01/12 10:09:20;;;;;;;2.25;2.05;;;;;;;-0.13;91.08;98731.84;5025421;28;20036;-88
2022/01/12 10:11:56;;;;;;;0.40;0.40;;;;;;;-0.18;92.59;98729.22;5010764;28;20030;-87
2022/01/12 10:14:24;;;;;;;0.65;0.63;;;;;;;-0.13;92.25;98726.59;5023974;28;20508;-87
2022/01/12 10:16:51;;;;;;;3.30;1.52;;;;;;;-0.40;93.00;98729.22;5026462;28;20694;-87
2022/01/12 10:23:28;;;;;;;1.23;1.15;;;;;;;-0.33;91.77;98730.97;5039157;28;20068;-86
2022/01/12 10:25:54;;;;;;;3.83;3.40;;;;;;;-0.70;92.87;98704.69;5040753;28;20032;-88
2022/01/12 10:28:22;;;;;;;4.13;1.13;;;;;;;-1.02;94.32;98719.53;5022328;28;20030;-87
2022/01/12 10:31:00;;;;;;;1.70;0.88;;;;;;;-1.17;94.81;98724.72;5020833;28;20029;-86
2022/01/12 10:33:33;;;;;;;1.95;1.42;;;;;;;-0.90;97.47;98734.41;5022315;28;20025;-87
2022/01/12 10:36:06;;;;;;;1.77;1.50;;;;;;;-0.57;94.73;98716.06;5038462;28;20029;-88
2022/01/12 10:38:32;;;;;;;2.28;2.08;;;;;;;-0.14;94.82;98722.19;5021870;28;20477;-87
2022/01/12 10:41:03;;;;;;;1.63;1.42;;;;;;;-0.29;89.83;98688.94;5037736;28;20104;-88
2022/01/12 10:43:35;;;;;;;1.35;1.30;;;;;;;0.13;90.93;98732.69;5022996;28;20096;-88
2022/01/12 10:46:08;;;;;;;2.17;1.98;;;;;;;0.11;89.10;98729.19;5021272;28;20041;-87
2022/01/12 10:48:45;;;;;;;2.33;1.85;;;;;;;0.37;87.87;98708.94;5039486;28;20110;-87
2022/01/12 10:51:14;;;;;;;1.48;1.38;;;;;;;0.21;89.51;98730.94;5038316;28;20069;-88
2022/01/12 10:53:40;;;;;;;2.40;2.20;;;;;;;0.37;87.63;98715.97;5021673;28;20354;-88
2022/01/12 10:56:14;;;;;;;1.73;1.63;;;;;;;0.14;85.17;98691.47;5020428;28;20021;-87
2022/01/12 10:58:45;;;;;;;2.78;1.95;;;;;;;0.14;85.38;98710.78;5020329;28;20029;-88
2022/01/12 11:01:12;;;;;;;2.67;2.20;;;;;;;0.01;88.24;98724.81;5037590;28;20036;-88
2022/01/12 11:03:38;;;;;;;1.60;1.48;;;;;;;-0.09;88.99;98733.56;5021126;28;20032;-88
2022/01/12 11:06:06;;;;;;;1.05;1.05;;;;;;;0.07;89.99;98711.66;5020073;28;20022;-87
2022/01/12 11:08:33;;;;;;;1.15;1.15;;;;;;;0.44;87.65;98701.91;5022165;28;20025;-87
2022/01/12 11:10:59;;;;;;;1.50;1.40;;;;;;;0.42;87.29;98716.84;5020967;28;20473;-87
2022/01/12 11:13:26;;;;;;;1.73;1.63;;;;;;;0.42;85.61;98717.72;5018602;28;20452;-87
2022/01/12 11:15:52;;;;;;;13.05;2.88;;;;;;;0.43;88.03;98719.44;5018187;28;20056;-87
2022/01/12 11:18:54;;;;;;;5.05;1.02;;;;;;;0.96;86.53;98727.13;5025254;28;20029;-89
2022/01/12 11:21:41;;;;;;;2.70;1.77;;;;;;;0.68;87.18;98729.91;5022445;28;20040;-85
2022/01/12 11:24:11;;;;;;;3.17;2.88;;;;;;;0.58;86.25;98728.19;5015999;28;20120;-84
2022/01/12 11:26:37;;;;;;;1.30;1.30;;;;;;;0.27;87.90;98712.50;5015371;28;20061;-84
2022/01/12 11:29:04;;;;;;;3.20;2.92;;;;;;;0.41;85.62;98715.94;5013908;28;20057;-85
2022/01/12 11:31:41;;;;;;;1.90;1.80;;;;;;;0.47;86.28;98725.56;5014894;28;20034;-87
2022/01/12 11:34:17;;;;;;;2.50;1.77;;;;;;;0.21;84.75;98717.78;5016500;28;20036;-87
2022/01/12 11:36:42;;;;;;;2.85;2.60;;;;;;;0.33;85.95;98703.72;5009566;28;20026;-87
2022/01/12 11:39:15;;;;;;;5.00;1.73;;;;;;;0.17;88.75;98726.53;5013888;28;20476;-87
2022/01/12 11:41:43;;;;;;;4.88;2.58;;;;;;;0.35;88.63;98715.97;5013338;28;20057;-88
2022/01/12 11:44:15;;;;;;;2.83;1.55;;;;;;;0.42;85.90;98733.50;5015279;28;20524;-85
2022/01/12 11:46:45;;;;;;;1.75;1.65;;;;;;;0.35;87.74;98717.72;5017269;28;20021;-85
2022/01/12 11:49:12;;;;;;;3.72;3.42;;;;;;;0.52;85.46;98731.72;5032893;28;20025;-87
2022/01/12 11:51:46;;;;;;;3.55;1.88;;;;;;;0.48;89.69;98725.59;5013247;28;20405;-88
2022/01/12 11:54:29;;;;;;;2.80;2.60;;;;;;;0.41;88.63;98729.09;5015256;28;20079;-87
2022/01/12 11:56:56;;;;;;;2.13;1.73;;;;;;;0.47;87.58;98731.72;4999284;28;20033;-89
2022/01/12 11:59:23;;;;;;;2.42;2.22;;;;;;;0.75;84.20;98724.59;5015855;28;20501;-89
2022/01/12 12:01:50;;;;;;;5.35;2.35;;;;;;;0.76;84.94;98749.19;5016823;28;20449;-89
2022/01/12 12:04:30;;;;;;;3.95;2.63;;;;;;;0.58;87.36;98739.59;5014770;28;20060;-88
2022/01/12 12:07:06;;;;;;;2.75;2.55;;;;;;;0.72;88.45;98747.44;5033551;28;20053;-88
2022/01/12 12:09:52;;;;;;;3.53;2.17;;;;;;;0.67;85.83;98749.22;5016700;28;20401;-88
2022/01/12 12:12:20;;;;;;;3.17;1.55;;;;;;;0.50;86.34;98751.88;5002073;28;20021;-87
2022/01/12 12:14:48;;;;;;;7.00;2.00;;;;;;;0.73;86.74;98746.56;5012822;28;20064;-88
2022/01/12 12:17:15;;;;;;;2.55;2.38;;;;;;;0.45;88.46;98749.28;5014979;28;20018;-87
2022/01/12 12:19:41;;;;;;;2.03;1.88;;;;;;;0.67;89.08;98750.09;5016373;28;20028;-90
2022/01/12 12:22:12;;;;;;;2.13;1.75;;;;;;;0.83;89.00;98735.97;5016771;28;20473;-88
2022/01/12 12:24:38;;;;;;;1.10;1.10;;;;;;;0.93;87.95;98745.56;5032546;28;20049;-88
2022/01/12 12:27:05;;;;;;;1.80;1.70;;;;;;;1.11;82.91;98731.44;5014323;28;20025;-88
2022/01/12 12:29:31;;;;;;;3.30;1.02;;;;;;;1.08;83.12;98728.81;5014275;28;20030;-88
2022/01/12 12:31:57;;;;;;;2.15;1.95;;;;;;;1.20;84.99;98735.81;5017340;28;20387;-89
2022/01/12 12:34:27;;;;;;;1.77;1.67;;;;;;;1.38;81.41;98741.84;5033587;28;20029;-89
2022/01/12 12:37:03;;;;;;;0.68;0.68;;;;;;;1.22;84.79;98729.63;5033121;28;20009;-89
2022/01/12 12:39:32;;;;;;;1.33;1.27;;;;;;;1.27;83.86;98741.00;5032747;28;20485;-90
2022/01/12 12:41:58;;;;;;;0.45;0.45;;;;;;;0.77;83.32;98735.13;5016062;28;20116;-89
2022/01/12 12:44:26;;;;;;;2.08;1.58;;;;;;;0.68;87.21;98751.81;5012966;28;20084;-89
2022/01/12 12:47:05;;;;;;;2.45;1.10;;;;;;;0.39;90.09;98749.31;5016199;28;20108;-86
2022/01/12 12:49:36;;;;;;;1.67;1.58;;;;;;;0.25;86.84;98751.06;5015774;28;20046;-89
2022/01/12 12:52:03;;;;;;;2.55;1.38;;;;;;;0.47;87.67;98738.75;5016654;28;20030;-88
2022/01/12 12:54:29;;;;;;;0.70;0.70;;;;;;;0.38;90.24;98734.38;5032938;28;20026;-88
2022/01/12 12:57:06;;;;;;;1.95;1.48;;;;;;;0.70;89.69;98749.19;5017288;28;20028;-88
2022/01/12 12:59:32;;;;;;;4.47;2.90;;;;;;;0.87;86.97;98744.72;5013861;28;20030;-89
2022/01/12 13:01:58;;;;;;;12.75;3.15;;;;;;;0.54;88.57;98749.25;5016444;28;20032;-88
2022/01/12 13:04:24;;;;;;;0.68;0.68;;;;;;;0.15;89.66;98748.47;5016011;28;20104;-88
2022/01/12 13:06:49;;;;;;;0.57;0.50;;;;;;;0.08;92.03;98746.72;5012709;28;20030;-87
2022/01/12 13:09:16;;;;;;;0.70;0.70;;;;;;;0.16;90.39;98751.09;5005911;28;20025;-89
2022/01/12 13:11:44;;;;;;;6.22;4.03;;;;;;;0.12;89.88;98757.25;5001586;28;20125;-87
2022/01/12 13:14:14;;;;;;;4.45;2.45;;;;;;;0.16;92.48;98761.59;5016767;28;20025;-90
2022/01/12 13:16:45;;;;;;;0.55;0.55;;;;;;;0.08;91.67;98750.22;5015628;28;20025;-90
2022/01/12 13:19:22;;;;;;;3.20;2.20;;;;;;;0.13;92.33;98760.72;5016370;28;20060;-89
2022/01/12 13:21:49;;;;;;;1.25;1.23;;;;;;;-0.11;94.57;98772.16;5017939;28;20029;-89
2022/01/12 13:24:14;;;;;;;0.77;0.77;;;;;;;-0.34;98.53;98769.50;5015254;28;20548;-89
2022/01/12 13:26:40;;;;;;;1.55;1.40;;;;;;;-0.43;98.36;98764.25;5000861;28;20108;-89